Time;durP1;ratioP1;P1;durP2;ratioP2;P2;SDS_P1;SDS_P2;PMS_P1;PMS_P2;Temp;Humidity;BMP_temperature;BMP_pressure;BME280_temperature;BME280_humidity;BME280_pressure;Samples;Min_cycle;Max_cycle;Signal;HPM_P1;HPM_P2
2021/07/29 00:01:52;;;;;;;4.63;3.97;;;17.30;99.90;;;;;;5053306;28;20045;-40
2021/07/29 00:04:17;;;;;;;4.03;3.20;;;17.30;99.90;;;;;;5053335;28;20060;-42
2021/07/29 00:06:43;;;;;;;4.72;3.22;;;17.30;99.90;;;;;;5052779;28;20468;-39
2021/07/29 00:09:09;;;;;;;3.70;2.92;;;17.40;99.90;;;;;;5052087;28;20103;-39
2021/07/29 00:11:34;;;;;;;5.90;3.97;;;17.50;99.90;;;;;;5053287;28;20120;-41
2021/07/29 00:14:01;;;;;;;4.15;3.25;;;17.50;99.90;;;;;;5053288;28;20441;-42
2021/07/29 00:16:30;;;;;;;3.42;3.00;;;17.50;99.90;;;;;;5053203;28;20083;-42
2021/07/29 00:19:05;;;;;;;5.20;4.20;;;17.50;99.90;;;;;;5053127;28;20523;-40
2021/07/29 00:21:36;;;;;;;5.35;3.58;;;17.50;99.90;;;;;;5053138;28;20025;-38
2021/07/29 00:24:02;;;;;;;6.50;3.92;;;17.60;99.90;;;;;;5053031;28;20488;-41
2021/07/29 00:26:28;;;;;;;6.63;3.38;;;17.60;99.90;;;;;;5052158;28;20372;-41
2021/07/29 00:28:54;;;;;;;5.75;3.67;;;17.60;99.90;;;;;;5052997;28;20025;-38
2021/07/29 00:31:21;;;;;;;4.22;3.30;;;17.60;99.90;;;;;;5052965;28;20029;-39
2021/07/29 00:33:46;;;;;;;5.95;4.20;;;17.60;99.90;;;;;;5052806;28;20088;-40
2021/07/29 00:36:21;;;;;;;3.75;3.10;;;17.60;99.90;;;;;;5052973;28;20058;-42
2021/07/29 00:38:47;;;;;;;4.33;2.77;;;17.50;99.90;;;;;;5052882;28;20372;-39
2021/07/29 00:41:14;;;;;;;4.07;3.58;;;17.40;99.90;;;;;;5051556;28;20029;-42
2021/07/29 00:43:39;;;;;;;4.47;3.45;;;17.40;99.90;;;;;;5052785;28;20710;-39
2021/07/29 00:46:05;;;;;;;5.15;4.25;;;17.40;99.90;;;;;;5052673;28;20112;-40
2021/07/29 00:48:30;;;;;;;4.18;3.47;;;17.30;99.90;;;;;;5052665;28;20033;-41
2021/07/29 00:50:56;;;;;;;4.35;3.95;;;17.30;99.90;;;;;;5052746;28;20142;-38
2021/07/29 00:53:21;;;;;;;4.30;3.88;;;17.30;99.90;;;;;;5052734;28;20025;-38
2021/07/29 00:55:48;;;;;;;6.43;4.38;;;17.20;99.90;;;;;;5051330;28;20032;-38
2021/07/29 00:58:14;;;;;;;6.80;4.68;;;17.20;99.90;;;;;;5052764;28;20021;-40
2021/07/29 01:00:39;;;;;;;4.05;3.65;;;17.20;99.90;;;;;;5052514;28;20372;-42
2021/07/29 01:03:05;;;;;;;4.47;3.72;;;17.20;99.90;;;;;;5052421;28;20064;-42
2021/07/29 01:05:30;;;;;;;4.70;3.70;;;17.20;99.90;;;;;;5052605;28;20425;-39
2021/07/29 01:07:56;;;;;;;3.70;3.35;;;17.10;99.90;;;;;;5052477;28;20029;-41
2021/07/29 01:10:21;;;;;;;6.15;3.85;;;17.10;99.90;;;;;;5051343;28;20578;-41
2021/07/29 01:12:47;;;;;;;5.72;4.32;;;17.00;99.90;;;;;;5052469;28;20057;-40
2021/07/29 01:15:13;;;;;;;5.53;4.35;;;17.00;99.90;;;;;;5052473;28;20029;-41
2021/07/29 01:17:38;;;;;;;4.80;3.33;;;17.00;99.90;;;;;;5052394;28;20024;-38
2021/07/29 01:20:05;;;;;;;4.82;3.80;;;16.90;99.90;;;;;;5056325;28;20029;-38
2021/07/29 01:22:32;;;;;;;5.72;3.70;;;16.90;99.90;;;;;;5056448;28;20503;-38
2021/07/29 01:24:57;;;;;;;4.22;3.33;;;16.80;99.90;;;;;;5053774;28;20192;-38
2021/07/29 01:27:23;;;;;;;6.20;3.83;;;16.80;99.90;;;;;;5056286;28;20029;-38
2021/07/29 01:29:48;;;;;;;5.72;3.72;;;16.70;99.90;;;;;;5056226;28;20103;-38
2021/07/29 01:32:14;;;;;;;5.22;3.63;;;16.70;99.90;;;;;;5056125;28;20078;-38
2021/07/29 01:34:40;;;;;;;4.65;3.88;;;16.70;99.90;;;;;;5056121;28;20029;-39
2021/07/29 01:37:06;;;;;;;7.75;4.10;;;16.60;99.90;;;;;;5056169;28;20052;-42
2021/07/29 01:39:31;;;;;;;5.03;4.22;;;16.50;99.90;;;;;;5054950;28;20029;-38
2021/07/29 01:41:57;;;;;;;4.85;4.00;;;16.50;99.90;;;;;;5056077;28;20071;-38
2021/07/29 01:44:22;;;;;;;5.55;4.60;;;16.40;99.90;;;;;;5056101;28;20459;-38
2021/07/29 01:46:48;;;;;;;6.75;4.45;;;16.50;99.90;;;;;;5055767;28;20078;-38
2021/07/29 01:49:19;;;;;;;4.05;3.50;;;16.40;99.90;;;;;;5056075;28;20045;-38
2021/07/29 01:51:45;;;;;;;5.72;3.80;;;16.40;99.90;;;;;;5055845;28;20031;-39
2021/07/29 01:54:10;;;;;;;6.03;3.65;;;16.40;99.90;;;;;;5054569;28;20104;-38
2021/07/29 01:56:35;;;;;;;4.50;3.83;;;16.30;99.90;;;;;;5055824;28;20028;-40
2021/07/29 01:59:06;;;;;;;4.28;3.70;;;16.30;99.90;;;;;;5055756;28;20377;-39
2021/07/29 02:01:32;;;;;;;5.72;3.97;;;16.20;99.90;;;;;;5055623;28;20064;-41
2021/07/29 02:03:57;;;;;;;5.47;3.72;;;16.10;99.90;;;;;;5055642;28;20053;-39
2021/07/29 02:06:23;;;;;;;6.05;3.72;;;16.00;99.90;;;;;;5055621;28;20029;-40
2021/07/29 02:08:48;;;;;;;5.35;4.30;;;15.90;99.90;;;;;;5055557;28;20033;-39
2021/07/29 02:11:14;;;;;;;4.18;3.38;;;15.90;99.90;;;;;;5054261;28;20028;-40
2021/07/29 02:13:40;;;;;;;3.90;3.38;;;15.80;99.90;;;;;;5055512;28;20036;-38
2021/07/29 02:16:12;;;;;;;4.10;3.22;;;15.70;99.90;;;;;;5055405;28;20404;-39
2021/07/29 02:18:38;;;;;;;4.50;3.60;;;15.60;99.90;;;;;;5055392;28;20044;-39
2021/07/29 02:21:08;;;;;;;4.45;3.83;;;15.60;99.90;;;;;;5055364;28;20033;-39
2021/07/29 02:23:34;;;;;;;3.88;3.40;;;15.50;99.90;;;;;;5055396;28;20044;-40
2021/07/29 02:25:59;;;;;;;5.20;3.60;;;15.40;99.90;;;;;;5053860;28;20032;-39
2021/07/29 02:28:25;;;;;;;4.75;3.60;;;15.30;99.90;;;;;;5053868;28;20488;-38
2021/07/29 02:30:50;;;;;;;3.95;3.13;;;15.30;99.90;;;;;;5054846;28;20028;-38
2021/07/29 02:33:16;;;;;;;5.85;3.90;;;15.20;99.90;;;;;;5055135;28;20437;-38
2021/07/29 02:35:41;;;;;;;4.60;3.38;;;15.10;99.90;;;;;;5055112;28;20341;-39
2021/07/29 02:38:07;;;;;;;3.83;3.35;;;15.00;99.90;;;;;;5055014;28;20036;-39
2021/07/29 02:40:32;;;;;;;6.03;3.85;;;15.00;99.90;;;;;;5053738;28;20400;-38
2021/07/29 02:42:58;;;;;;;6.82;3.70;;;14.90;99.90;;;;;;5054779;28;20067;-38
2021/07/29 02:45:23;;;;;;;6.45;4.55;;;14.80;99.90;;;;;;5054915;28;20051;-38
2021/07/29 02:47:49;;;;;;;4.60;3.55;;;14.80;99.90;;;;;;5054852;28;20484;-39
2021/07/29 02:50:14;;;;;;;4.13;3.47;;;14.80;99.90;;;;;;5054864;28;20025;-38
2021/07/29 02:52:41;;;;;;;5.63;4.55;;;14.80;99.90;;;;;;5054804;28;20506;-38
2021/07/29 02:55:07;;;;;;;3.90;3.30;;;14.80;99.90;;;;;;5053713;28;20091;-41
2021/07/29 02:57:33;;;;;;;4.97;4.15;;;14.80;99.90;;;;;;5054946;28;20036;-38
2021/07/29 02:59:59;;;;;;;7.03;4.40;;;14.80;99.90;;;;;;5054543;28;20048;-38
2021/07/29 03:02:24;;;;;;;4.68;3.83;;;14.80;99.90;;;;;;5054517;28;20053;-38
2021/07/29 03:04:50;;;;;;;7.05;4.93;;;14.80;99.90;;;;;;5054491;28;20087;-38
2021/07/29 03:07:15;;;;;;;5.07;4.07;;;14.80;99.90;;;;;;5054437;28;20110;-38
2021/07/29 03:09:41;;;;;;;5.53;4.15;;;14.80;99.90;;;;;;5053203;28;20103;-40
2021/07/29 03:12:06;;;;;;;6.15;3.97;;;14.80;99.90;;;;;;5054432;28;20029;-38
2021/07/29 03:14:32;;;;;;;4.57;4.00;;;14.80;99.90;;;;;;5054341;28;20029;-40
2021/07/29 03:16:57;;;;;;;5.65;3.97;;;14.80;99.90;;;;;;5054343;28;20060;-38
2021/07/29 03:19:23;;;;;;;5.88;4.60;;;14.80;99.90;;;;;;5054335;28;20036;-40
2021/07/29 03:21:48;;;;;;;5.35;3.70;;;14.80;99.90;;;;;;5054267;28;20100;-39
2021/07/29 03:24:14;;;;;;;5.95;3.78;;;14.80;99.90;;;;;;5052925;28;20029;-38
2021/07/29 03:26:39;;;;;;;4.70;3.75;;;14.80;99.90;;;;;;5054098;28;20021;-38
2021/07/29 03:29:05;;;;;;;5.10;3.85;;;14.80;99.90;;;;;;5054019;28;20414;-40
2021/07/29 03:31:30;;;;;;;5.07;4.00;;;14.80;99.90;;;;;;5054116;28;20025;-41
2021/07/29 03:33:56;;;;;;;8.32;3.83;;;14.80;99.90;;;;;;5053994;28;20029;-38
2021/07/29 03:36:21;;;;;;;4.30;3.65;;;14.80;99.90;;;;;;5053997;28;20369;-41
2021/07/29 03:38:47;;;;;;;5.00;3.90;;;14.80;99.90;;;;;;5053925;28;20029;-40
2021/07/29 03:41:12;;;;;;;4.60;3.70;;;14.90;99.90;;;;;;5051816;28;20044;-39
2021/07/29 03:43:38;;;;;;;3.78;3.38;;;14.90;99.90;;;;;;5053720;28;20025;-39
2021/07/29 03:46:03;;;;;;;4.25;3.85;;;15.00;99.90;;;;;;5053668;28;20029;-39
2021/07/29 03:48:29;;;;;;;4.10;3.67;;;15.00;99.90;;;;;;5053768;28;20120;-39
2021/07/29 03:50:54;;;;;;;4.35;3.78;;;15.10;99.90;;;;;;5053674;28;20025;-38
2021/07/29 03:53:20;;;;;;;6.95;3.67;;;15.20;99.90;;;;;;5053654;28;20043;-38
2021/07/29 03:55:46;;;;;;;4.75;3.55;;;15.30;99.90;;;;;;5052325;28;20028;-38
2021/07/29 03:58:11;;;;;;;5.65;4.28;;;15.30;99.90;;;;;;5053432;28;20083;-38
2021/07/29 04:00:37;;;;;;;5.40;4.50;;;15.50;99.90;;;;;;5053526;28;20024;-37
2021/07/29 04:03:05;;;;;;;7.60;5.35;;;15.50;99.90;;;;;;5053322;28;20088;-40
2021/07/29 04:05:31;;;;;;;5.50;4.07;;;15.60;99.90;;;;;;5053446;28;20025;-38
2021/07/29 04:07:56;;;;;;;4.70;3.33;;;15.80;99.90;;;;;;5053275;28;20080;-40
2021/07/29 04:10:21;;;;;;;5.13;4.63;;;15.90;99.90;;;;;;5052048;28;20473;-39
2021/07/29 04:12:47;;;;;;;5.50;3.35;;;16.30;99.90;;;;;;5053131;28;20033;-38
2021/07/29 04:15:12;;;;;;;4.15;3.25;;;17.30;99.90;;;;;;5053228;28;20404;-38
2021/07/29 04:17:40;;;;;;;3.45;3.10;;;18.30;99.90;;;;;;5053227;28;20040;-39
2021/07/29 04:20:06;;;;;;;3.28;2.97;;;19.40;99.90;;;;;;5053063;28;20144;-38
2021/07/29 04:22:32;;;;;;;3.67;2.92;;;20.30;99.90;;;;;;5051950;28;20025;-38
2021/07/29 04:24:57;;;;;;;3.75;2.95;;;21.20;99.90;;;;;;5051762;28;20380;-41
2021/07/29 04:27:23;;;;;;;5.88;3.72;;;22.00;99.90;;;;;;5052968;28;20108;-38
2021/07/29 04:29:49;;;;;;;4.10;3.08;;;22.80;99.90;;;;;;5053014;28;20044;-38
2021/07/29 04:32:15;;;;;;;2.42;2.22;;;22.80;99.90;;;;;;5052970;28;20208;-38
2021/07/29 04:34:40;;;;;;;3.53;2.55;;;22.50;99.90;;;;;;5052999;28;20100;-39
2021/07/29 04:37:08;;;;;;;2.70;2.50;;;21.90;99.90;;;;;;5052924;28;20037;-38
2021/07/29 04:39:34;;;;;;;3.53;2.75;;;21.70;99.90;;;;;;5051651;28;20029;-38
2021/07/29 04:41:59;;;;;;;4.15;3.60;;;21.30;99.90;;;;;;5052768;28;20035;-40
2021/07/29 04:44:25;;;;;;;4.55;3.28;;;21.50;99.90;;;;;;5052867;28;20068;-39
2021/07/29 04:46:50;;;;;;;3.47;2.50;;;22.50;99.90;;;;;;5052751;28;20029;-39
2021/07/29 04:49:20;;;;;;;3.55;2.72;;;23.70;99.90;;;;;;5052786;28;20033;-40
2021/07/29 04:51:47;;;;;;;2.67;2.38;;;24.20;99.90;;;;;;5052729;28;20021;-41
2021/07/29 04:54:13;;;;;;;4.10;3.55;;;24.10;99.90;;;;;;5051347;28;20025;-38
2021/07/29 04:56:38;;;;;;;4.10;2.83;;;24.20;99.90;;;;;;5052625;28;20040;-39
2021/07/29 04:59:04;;;;;;;3.95;2.78;;;24.70;99.90;;;;;;5052650;28;20025;-39
2021/07/29 05:01:30;;;;;;;2.60;2.13;;;24.90;99.90;;;;;;5052546;28;20037;-38
2021/07/29 05:03:55;;;;;;;3.00;2.70;;;24.70;99.90;;;;;;5052565;28;20527;-41
2021/07/29 05:06:21;;;;;;;3.47;2.30;;;24.20;99.90;;;;;;5051273;28;20025;-39
2021/07/29 05:08:46;;;;;;;5.03;3.17;;;23.90;99.90;;;;;;5052655;28;20029;-39
2021/07/29 05:11:12;;;;;;;3.60;2.40;;;23.50;99.90;;;;;;5051133;28;20025;-41
2021/07/29 05:13:37;;;;;;;2.67;2.47;;;23.10;99.90;;;;;;5052923;28;20541;-39
2021/07/29 05:16:04;;;;;;;2.40;2.15;;;22.70;99.90;;;;;;5052511;28;20025;-39
2021/07/29 05:18:30;;;;;;;3.25;2.70;;;22.40;99.90;;;;;;5052544;28;20017;-39
2021/07/29 05:21:00;;;;;;;5.63;2.33;;;22.10;99.90;;;;;;5052567;28;20083;-38
2021/07/29 05:23:25;;;;;;;2.35;2.15;;;21.80;99.90;;;;;;5052533;28;20021;-38
2021/07/29 05:25:51;;;;;;;4.20;3.05;;;21.70;99.90;;;;;;5051093;28;20109;-40
2021/07/29 05:28:16;;;;;;;4.05;2.97;;;21.50;99.90;;;;;;5052351;28;20111;-39
2021/07/29 05:30:42;;;;;;;2.85;2.40;;;21.40;99.90;;;;;;5052410;28;20028;-40
2021/07/29 05:33:07;;;;;;;4.93;2.70;;;21.40;99.90;;;;;;5052291;28;20047;-39
2021/07/29 05:35:33;;;;;;;2.78;2.00;;;21.40;99.90;;;;;;5052369;28;20100;-39
2021/07/29 05:37:58;;;;;;;2.47;2.28;;;21.50;99.90;;;;;;5052333;28;20052;-39
2021/07/29 05:40:24;;;;;;;2.83;2.33;;;21.50;99.90;;;;;;5050803;28;20033;-41
2021/07/29 05:42:49;;;;;;;4.03;2.40;;;21.70;99.90;;;;;;5052287;28;20032;-38
2021/07/29 05:45:15;;;;;;;2.78;2.20;;;21.80;99.90;;;;;;5052261;28;20029;-39
2021/07/29 05:47:42;;;;;;;3.05;2.25;;;22.00;99.90;;;;;;5052207;28;20025;-39
2021/07/29 05:50:07;;;;;;;3.20;2.33;;;22.30;99.90;;;;;;5052204;28;20384;-41
2021/07/29 05:52:33;;;;;;;3.67;2.67;;;22.50;99.90;;;;;;5052246;28;20025;-40
2021/07/29 05:54:58;;;;;;;2.97;2.33;;;23.10;99.90;;;;;;5050730;28;20029;-39
2021/07/29 05:57:24;;;;;;;3.08;2.45;;;24.10;99.90;;;;;;5050842;28;20035;-39
2021/07/29 05:59:49;;;;;;;4.35;2.60;;;25.70;99.90;;;;;;5052104;28;20027;-41
2021/07/29 06:02:15;;;;;;;4.22;2.30;;;26.60;96.40;;;;;;5051950;28;20057;-41
2021/07/29 06:04:40;;;;;;;2.83;2.55;;;28.10;93.60;;;;;;5053470;28;20465;-39
2021/07/29 06:07:06;;;;;;;2.47;2.28;;;29.40;88.10;;;;;;5055611;28;20152;-40
2021/07/29 06:09:31;;;;;;;4.10;2.40;;;30.30;82.40;;;;;;5054364;28;20021;-39
2021/07/29 06:11:57;;;;;;;3.72;2.40;;;31.00;76.40;;;;;;5055659;28;20108;-40
2021/07/29 06:14:23;;;;;;;4.40;2.42;;;31.50;69.80;;;;;;5055568;28;20067;-40
2021/07/29 06:16:48;;;;;;;2.80;2.25;;;32.30;67.40;;;;;;5055541;28;20060;-40
2021/07/29 06:19:29;;;;;;;4.68;2.00;;;32.80;64.40;;;;;;5054226;28;20392;-39
2021/07/29 06:21:57;;;;;;;1.85;1.50;;;33.40;61.10;;;;;;5055520;28;20029;-41
2021/07/29 06:24:22;;;;;;;2.25;1.95;;;34.00;58.40;;;;;;5053987;28;20306;-40
2021/07/29 06:26:49;;;;;;;4.68;2.33;;;34.40;55.30;;;;;;5055322;28;20100;-39
2021/07/29 06:29:14;;;;;;;2.85;2.30;;;34.30;47.70;;;;;;5055252;28;20025;-40
2021/07/29 06:31:40;;;;;;;3.40;2.03;;;34.60;50.70;;;;;;5055529;28;20048;-42
2021/07/29 06:34:05;;;;;;;1.95;1.77;;;35.00;48.00;;;;;;5055225;28;20159;-39
2021/07/29 06:36:31;;;;;;;2.17;1.80;;;35.30;46.90;;;;;;5055249;28;20021;-40
2021/07/29 06:38:59;;;;;;;2.85;1.75;;;35.70;46.20;;;;;;5053842;28;20583;-40
2021/07/29 06:41:25;;;;;;;3.03;1.67;;;36.20;45.00;;;;;;5055019;28;20025;-40
2021/07/29 06:43:50;;;;;;;2.28;2.05;;;36.60;42.40;;;;;;5055126;28;20143;-40
2021/07/29 06:46:16;;;;;;;1.95;1.70;;;36.80;39.70;;;;;;5054905;28;20480;-41
2021/07/29 06:48:41;;;;;;;2.65;2.03;;;37.00;39.40;;;;;;5055005;28;20373;-39
2021/07/29 06:51:08;;;;;;;2.20;2.00;;;37.10;38.50;;;;;;5054854;28;20025;-41
2021/07/29 06:53:37;;;;;;;3.90;1.90;;;37.40;37.10;;;;;;5054858;28;20021;-39
2021/07/29 06:56:04;;;;;;;2.58;1.88;;;37.90;35.60;;;;;;5053572;28;20024;-40
2021/07/29 06:58:30;;;;;;;2.90;1.80;;;38.20;34.50;;;;;;5054812;28;20025;-40
2021/07/29 07:00:59;;;;;;;3.20;1.77;;;38.20;32.90;;;;;;5054664;28;20075;-40
2021/07/29 07:03:26;;;;;;;1.70;1.60;;;38.40;32.00;;;;;;5054572;28;20045;-42
2021/07/29 07:05:51;;;;;;;3.78;1.70;;;38.50;31.50;;;;;;5054551;28;20108;-40
2021/07/29 07:08:17;;;;;;;2.65;1.83;;;39.00;30.00;;;;;;5054509;28;20105;-40
2021/07/29 07:10:42;;;;;;;2.20;2.00;;;38.70;29.30;;;;;;5053220;28;20049;-40
2021/07/29 07:13:08;;;;;;;2.50;1.95;;;38.90;29.30;;;;;;5054434;28;20040;-40
2021/07/29 07:15:33;;;;;;;4.05;1.70;;;39.20;28.80;;;;;;5053577;28;20025;-41
2021/07/29 07:17:59;;;;;;;3.42;1.50;;;39.10;28.30;;;;;;5054179;28;20098;-40
2021/07/29 07:20:25;;;;;;;2.10;1.50;;;39.40;28.00;;;;;;5054251;28;20040;-40
2021/07/29 07:22:51;;;;;;;3.75;1.73;;;39.50;27.60;;;;;;5054333;28;20522;-40
2021/07/29 07:25:17;;;;;;;2.28;1.70;;;39.90;27.20;;;;;;5052988;28;20033;-40
2021/07/29 07:27:42;;;;;;;2.00;1.80;;;40.20;26.90;;;;;;5054109;28;20081;-40
2021/07/29 07:30:08;;;;;;;1.95;1.55;;;40.60;26.20;;;;;;5054089;28;20067;-40
2021/07/29 07:32:34;;;;;;;1.92;1.73;;;40.80;25.80;;;;;;5054364;28;20021;-40
2021/07/29 07:35:00;;;;;;;2.28;1.90;;;41.00;25.40;;;;;;5054068;28;20025;-40
2021/07/29 07:37:25;;;;;;;1.85;1.58;;;41.20;24.50;;;;;;5053933;28;20033;-40
2021/07/29 07:39:50;;;;;;;3.45;1.90;;;41.20;23.50;;;;;;5052981;28;20049;-40
2021/07/29 07:42:16;;;;;;;2.08;1.88;;;40.70;23.20;;;;;;5053902;28;20017;-40
2021/07/29 07:44:42;;;;;;;4.55;1.70;;;40.70;22.90;;;;;;5053866;28;20033;-41
2021/07/29 07:47:07;;;;;;;3.15;2.00;;;40.40;22.50;;;;;;5053770;28;20065;-40
2021/07/29 07:49:33;;;;;;;4.13;2.03;;;39.20;22.80;;;;;;5053756;28;20094;-42
2021/07/29 07:51:59;;;;;;;3.42;1.63;;;39.10;23.10;;;;;;5053645;28;20029;-42
2021/07/29 07:54:25;;;;;;;3.80;1.90;;;39.40;23.00;;;;;;5052368;28;20017;-42
2021/07/29 07:56:50;;;;;;;2.17;1.75;;;39.10;22.50;;;;;;5053689;28;20029;-40
2021/07/29 07:59:16;;;;;;;3.17;2.05;;;39.50;22.70;;;;;;5053536;28;20025;-42
2021/07/29 08:01:44;;;;;;;2.30;2.10;;;38.80;22.40;;;;;;5053458;28;20440;-40
2021/07/29 08:04:09;;;;;;;2.00;1.73;;;39.00;22.60;;;;;;5053518;28;20075;-40
2021/07/29 08:06:36;;;;;;;4.28;1.90;;;39.60;22.30;;;;;;5053279;28;20024;-42
2021/07/29 08:09:02;;;;;;;2.35;1.55;;;39.40;21.60;;;;;;5052184;28;20021;-40
2021/07/29 08:11:28;;;;;;;3.42;1.55;;;39.30;21.40;;;;;;5053376;28;20558;-40
2021/07/29 08:13:53;;;;;;;2.72;1.90;;;39.80;21.70;;;;;;5053350;28;20056;-40
2021/07/29 08:16:19;;;;;;;4.57;1.70;;;39.60;20.90;;;;;;5053202;28;20083;-41
2021/07/29 08:18:44;;;;;;;4.15;2.13;;;39.70;21.30;;;;;;5053270;28;20051;-42
2021/07/29 08:21:12;;;;;;;2.20;2.00;;;39.70;20.70;;;;;;5053133;28;20034;-40
2021/07/29 08:23:39;;;;;;;2.22;1.70;;;39.20;20.90;;;;;;5053205;28;20021;-40
2021/07/29 08:26:05;;;;;;;2.15;1.67;;;39.40;21.30;;;;;;5051868;28;20021;-40
2021/07/29 08:28:31;;;;;;;3.03;1.80;;;39.80;20.70;;;;;;5052819;28;20013;-43
2021/07/29 08:30:56;;;;;;;3.20;1.48;;;39.70;20.10;;;;;;5053065;28;20036;-40
2021/07/29 08:33:22;;;;;;;4.57;2.08;;;40.00;19.60;;;;;;5052937;28;20028;-41
2021/07/29 08:35:48;;;;;;;2.92;1.90;;;39.90;19.30;;;;;;5052878;28;20032;-40
2021/07/29 08:38:13;;;;;;;2.97;1.92;;;39.70;19.70;;;;;;5052973;28;20112;-40
2021/07/29 08:40:39;;;;;;;3.03;1.80;;;38.80;19.70;;;;;;5051665;28;20031;-40
2021/07/29 08:43:07;;;;;;;2.80;1.65;;;37.30;20.50;;;;;;5052904;28;20033;-40
2021/07/29 08:45:37;;;;;;;2.53;1.70;;;37.60;21.30;;;;;;5053097;28;20384;-40
2021/07/29 08:48:03;;;;;;;1.63;1.52;;;38.00;21.40;;;;;;5052739;28;20369;-40
2021/07/29 08:50:29;;;;;;;1.77;1.50;;;39.00;20.80;;;;;;5052704;28;20040;-40
2021/07/29 08:52:54;;;;;;;3.20;1.85;;;40.00;20.40;;;;;;5053074;28;20384;-40
2021/07/29 08:55:20;;;;;;;2.95;1.55;;;39.60;19.80;;;;;;5051415;28;20029;-40
2021/07/29 08:57:45;;;;;;;3.22;1.80;;;38.30;20.70;;;;;;5052671;28;20029;-42
2021/07/29 09:00:12;;;;;;;2.20;1.80;;;36.90;21.40;;;;;;5052704;28;20079;-40
2021/07/29 09:02:38;;;;;;;3.88;1.75;;;36.40;21.90;;;;;;5052354;28;20052;-40
2021/07/29 09:05:11;;;;;;;2.03;1.63;;;36.70;21.90;;;;;;5052724;28;20503;-41
2021/07/29 09:07:38;;;;;;;3.90;1.77;;;35.90;22.40;;;;;;5052577;28;20391;-40
2021/07/29 09:10:20;;;;;;;2.97;1.63;;;34.70;23.30;;;;;;5051421;28;20025;-40
2021/07/29 09:12:46;;;;;;;2.33;1.73;;;33.30;24.50;;;;;;5052604;28;20132;-40
2021/07/29 09:15:19;;;;;;;2.15;1.52;;;32.20;25.60;;;;;;5052509;28;20508;-40
2021/07/29 09:17:45;;;;;;;3.90;1.85;;;31.10;26.80;;;;;;5052589;28;20032;-39
2021/07/29 09:20:19;;;;;;;3.08;2.03;;;30.70;27.60;;;;;;5052602;28;20025;-39
2021/07/29 09:22:49;;;;;;;2.40;1.83;;;29.80;29.30;;;;;;5052514;28;20112;-39
2021/07/29 09:25:17;;;;;;;2.40;1.83;;;29.30;29.40;;;;;;5051316;28;20519;-39
2021/07/29 09:27:45;;;;;;;6.55;1.98;;;28.80;30.00;;;;;;5052286;28;20036;-40
2021/07/29 09:30:24;;;;;;;3.13;1.92;;;28.50;30.60;;;;;;5052493;28;20025;-40
2021/07/29 09:32:54;;;;;;;3.17;1.73;;;28.00;32.60;;;;;;5052458;28;20029;-41
2021/07/29 09:35:32;;;;;;;3.03;2.10;;;27.70;32.70;;;;;;5052413;28;20032;-39
2021/07/29 09:38:02;;;;;;;2.58;2.05;;;27.70;34.40;;;;;;5052382;28;20029;-41
2021/07/29 09:40:45;;;;;;;3.20;2.03;;;27.60;33.50;;;;;;5053707;28;20036;-39
2021/07/29 09:43:14;;;;;;;4.47;2.17;;;27.40;35.50;;;;;;5056231;28;20091;-39
2021/07/29 09:45:42;;;;;;;5.63;1.95;;;27.50;34.40;;;;;;5056120;28;20039;-41
2021/07/29 09:48:08;;;;;;;3.20;1.75;;;27.70;34.40;;;;;;5056060;28;20025;-39
2021/07/29 09:50:35;;;;;;;1.90;1.50;;;27.70;35.10;;;;;;5055990;28;20475;-41
2021/07/29 09:53:01;;;;;;;2.55;1.45;;;27.70;35.10;;;;;;5055983;28;20480;-40
2021/07/29 09:55:29;;;;;;;3.13;1.92;;;28.00;34.80;;;;;;5053298;28;20025;-41
2021/07/29 09:57:54;;;;;;;4.32;1.73;;;28.10;34.90;;;;;;5056002;28;20036;-39
2021/07/29 10:00:20;;;;;;;3.67;1.80;;;28.00;35.20;;;;;;5055828;28;20044;-39
2021/07/29 10:02:47;;;;;;;2.92;1.80;;;27.80;35.40;;;;;;5055718;28;20512;-39
2021/07/29 10:05:15;;;;;;;3.38;2.20;;;27.70;35.90;;;;;;5055762;28;20028;-39
2021/07/29 10:07:45;;;;;;;2.80;1.90;;;27.40;36.70;;;;;;5055589;28;20032;-41
2021/07/29 10:10:11;;;;;;;2.80;1.88;;;27.20;37.00;;;;;;5054343;28;20023;-40
2021/07/29 10:12:36;;;;;;;4.72;2.10;;;27.10;37.30;;;;;;5055590;28;20021;-39
2021/07/29 10:15:03;;;;;;;2.78;2.00;;;27.00;37.30;;;;;;5055575;28;20025;-41
2021/07/29 10:17:34;;;;;;;4.63;1.92;;;27.30;37.20;;;;;;5055511;28;20024;-39
2021/07/29 10:20:12;;;;;;;3.33;1.92;;;27.50;37.80;;;;;;5055375;28;20040;-39
2021/07/29 10:22:37;;;;;;;2.65;1.70;;;27.70;38.50;;;;;;5055479;28;20029;-41
2021/07/29 10:25:03;;;;;;;3.45;2.20;;;27.70;37.50;;;;;;5054159;28;20102;-39
2021/07/29 10:27:29;;;;;;;3.03;1.83;;;27.60;37.50;;;;;;5055242;28;20028;-43
2021/07/29 10:30:20;;;;;;;6.30;2.83;;;27.80;37.70;;;;;;5055297;28;20075;-39
2021/07/29 10:32:47;;;;;;;2.83;2.40;;;27.90;39.70;;;;;;5055131;28;20482;-40
2021/07/29 10:35:31;;;;;;;2.40;2.05;;;27.90;38.20;;;;;;5055252;28;20061;-39
2021/07/29 10:37:57;;;;;;;3.72;2.63;;;27.90;38.90;;;;;;5055163;28;20033;-41
2021/07/29 10:40:33;;;;;;;3.38;2.53;;;27.90;37.90;;;;;;5053933;28;20025;-39
2021/07/29 10:43:20;;;;;;;4.65;2.22;;;27.90;36.70;;;;;;5054929;28;20484;-39
2021/07/29 10:45:56;;;;;;;3.53;2.42;;;27.90;36.50;;;;;;5054993;28;20041;-39
2021/07/29 10:51:15;;;;;;;5.03;2.80;;;27.40;38.00;;;;;;5054744;28;20032;-41
2021/07/29 10:53:43;;;;;;;4.18;2.67;;;27.30;37.60;;;;;;5054816;28;20051;-39
2021/07/29 10:56:09;;;;;;;3.80;2.50;;;27.20;37.30;;;;;;5053791;28;20031;-43
2021/07/29 10:58:42;;;;;;;3.50;2.53;;;27.20;37.20;;;;;;5054761;28;20025;-40
2021/07/29 11:01:11;;;;;;;2.65;2.22;;;27.20;36.60;;;;;;5054797;28;20049;-40
2021/07/29 11:03:51;;;;;;;3.22;2.55;;;27.10;36.50;;;;;;5054724;28;20076;-39
2021/07/29 11:06:39;;;;;;;5.25;2.90;;;27.10;36.70;;;;;;5054562;28;20433;-39
2021/07/29 11:09:21;;;;;;;4.15;2.45;;;27.30;36.50;;;;;;5053322;28;20052;-39
2021/07/29 11:11:48;;;;;;;4.15;2.33;;;27.70;36.60;;;;;;5054536;28;20025;-41
2021/07/29 11:14:23;;;;;;;2.40;2.13;;;27.80;35.70;;;;;;5054416;28;20043;-39
2021/07/29 11:16:49;;;;;;;3.22;2.42;;;27.80;35.40;;;;;;5054353;28;20025;-40
2021/07/29 11:19:15;;;;;;;2.40;2.20;;;27.60;35.30;;;;;;5054408;28;20025;-39
2021/07/29 11:21:41;;;;;;;2.40;2.03;;;27.60;35.60;;;;;;5054315;28;20112;-39
2021/07/29 11:24:23;;;;;;;7.28;2.20;;;27.70;35.70;;;;;;5052995;28;20874;-39
2021/07/29 11:26:49;;;;;;;4.18;2.13;;;27.60;35.20;;;;;;5054010;28;20025;-39
2021/07/29 11:29:14;;;;;;;4.35;2.10;;;27.50;35.50;;;;;;5054204;28;20028;-41
2021/07/29 11:31:40;;;;;;;3.03;2.45;;;27.20;36.40;;;;;;5054090;28;20063;-40
2021/07/29 11:34:06;;;;;;;4.20;2.25;;;26.90;37.60;;;;;;5054076;28;20047;-41
2021/07/29 11:36:32;;;;;;;4.90;2.30;;;26.90;38.50;;;;;;5054064;28;20025;-39
2021/07/29 11:39:04;;;;;;;4.25;2.50;;;27.00;38.70;;;;;;5052756;28;20025;-39
2021/07/29 11:41:30;;;;;;;3.58;2.20;;;27.10;38.70;;;;;;5053928;28;20379;-41
2021/07/29 11:44:03;;;;;;;2.80;2.60;;;27.20;38.50;;;;;;5053900;28;20025;-39
2021/07/29 11:46:29;;;;;;;2.28;1.92;;;27.40;38.20;;;;;;5053803;28;20082;-40
2021/07/29 11:49:04;;;;;;;3.83;2.15;;;27.60;37.80;;;;;;5053729;28;20033;-39
2021/07/29 11:51:30;;;;;;;;;;;27.70;35.40;;;;;;5054152;28;20021;-39
2021/07/29 11:53:55;;;;;;;5.70;1.88;;;27.60;34.50;;;;;;5052290;28;19908;-39
2021/07/29 11:56:21;;;;;;;4.13;2.05;;;27.40;34.80;;;;;;5053716;28;20029;-42
2021/07/29 11:58:59;;;;;;;4.65;2.05;;;27.30;33.40;;;;;;5053628;28;20033;-39
2021/07/29 12:01:24;;;;;;;4.28;2.10;;;27.20;31.50;;;;;;5053381;28;20389;-39
2021/07/29 12:03:51;;;;;;;1.73;1.60;;;27.00;32.80;;;;;;5052958;28;20052;-39
2021/07/29 12:06:17;;;;;;;2.85;2.05;;;26.80;32.70;;;;;;5053282;28;20484;-41
2021/07/29 12:08:46;;;;;;;2.75;1.80;;;26.70;31.90;;;;;;5053299;28;20094;-39
2021/07/29 12:11:12;;;;;;;3.85;1.90;;;26.60;31.20;;;;;;5053052;28;20017;-40
2021/07/29 12:13:42;;;;;;;6.57;2.03;;;26.50;31.10;;;;;;5053375;28;20025;-40
2021/07/29 12:16:08;;;;;;;2.30;1.80;;;26.40;29.90;;;;;;5053319;28;20029;-39
2021/07/29 12:18:34;;;;;;;3.63;2.03;;;26.30;29.40;;;;;;5053335;28;20067;-41
2021/07/29 12:21:00;;;;;;;2.40;1.60;;;26.30;29.20;;;;;;5053175;28;20044;-41
2021/07/29 12:23:27;;;;;;;4.63;1.70;;;26.30;29.40;;;;;;5053199;28;20111;-39
2021/07/29 12:25:53;;;;;;;4.00;2.10;;;26.30;29.40;;;;;;5051852;28;20037;-39
2021/07/29 12:28:38;;;;;;;4.72;2.50;;;26.30;29.60;;;;;;5053067;28;20420;-39
2021/07/29 12:31:21;;;;;;;3.45;2.38;;;26.40;29.30;;;;;;5053083;28;20017;-40
2021/07/29 12:33:57;;;;;;;3.85;1.80;;;26.60;29.80;;;;;;5052981;28;20091;-39
2021/07/29 12:36:24;;;;;;;3.83;2.13;;;26.60;29.80;;;;;;5053066;28;20021;-40
2021/07/29 12:38:58;;;;;;;2.33;2.13;;;26.60;30.00;;;;;;5051878;28;20025;-39
2021/07/29 12:41:32;;;;;;;2.88;1.95;;;26.50;30.10;;;;;;5052903;28;20526;-39
2021/07/29 12:44:12;;;;;;;3.15;1.92;;;26.40;30.90;;;;;;5052750;28;20031;-39
2021/07/29 12:46:38;;;;;;;1.85;1.70;;;26.30;31.10;;;;;;5052782;28;20029;-39
2021/07/29 12:49:04;;;;;;;2.70;1.80;;;26.40;31.30;;;;;;5052830;28;20021;-39
2021/07/29 12:51:38;;;;;;;3.10;1.90;;;26.50;31.20;;;;;;5052826;28;20384;-39